This is the latest recevied weather packets stored in our database for station/object F8BJE-13. If no packets are shown the sender has not sent any weather packets the latest 10 day(s).
| Time | Temp. | Humidity | Pressure | Rain* | Wind** | Luminosity | Snow |
|---|---|---|---|---|---|---|---|
| 1788105603 | 26.67° C | 40% | 1016.4 hPa | 0 mm | - | - | - |
| 1788103803 | 27.22° C | 40% | 1016.9 hPa | 0 mm | - | - | - |
| 1788102003 | 26.67° C | 41% | 1017 hPa | 0 mm | - | - | - |
| 1788100203 | 25.56° C | 42% | 1017.3 hPa | 0 mm | - | - | - |
| 1788098403 | 26.67° C | 42% | 1017.3 hPa | 0 mm | - | - | - |
| 1788096603 | 26.11° C | 42% | 1017.8 hPa | 0 mm | - | - | - |
| 1788094803 | 27.78° C | 39% | 1018.1 hPa | 0 mm | - | - | - |
| 1788093003 | 29.44° C | 36% | 1018.4 hPa | 0 mm | - | - | - |
| 1788091203 | 28.89° C | 40% | 1018.4 hPa | 0 mm | - | - | - |
| 1788089403 | 27.22° C | 41% | 1018.8 hPa | 0 mm | - | - | - |
| 1788087603 | 28.33° C | 42% | 1019 hPa | 0 mm | - | - | - |
| 1788085803 | 26.67° C | 48% | 1019.2 hPa | 0 mm | - | - | - |
| 1788084003 | 27.78° C | 43% | 1019.3 hPa | 0 mm | - | - | - |
| 1788082203 | 26.67° C | 45% | 1019.6 hPa | 0 mm | - | - | - |
| 1788080403 | 27.22° C | 46% | 1019.4 hPa | 0 mm | - | - | - |
| 1788078603 | 28.33° C | 46% | 1019.3 hPa | 0 mm | - | - | - |
| 1788076803 | 24.44° C | 56% | 1019.5 hPa | 0 mm | - | - | - |
| 1788075003 | 18.89° C | 73% | 1019.6 hPa | 0 mm | - | - | - |
| 1788073203 | 20° C | 65% | 1019.6 hPa | 0 mm | - | - | - |
| 1788071403 | 18.33° C | 74% | 1019.3 hPa | 0 mm | - | - | - |
| 1788069603 | 17.78° C | 74% | 1018.9 hPa | 0 mm | - | - | - |
| 1788067803 | 17.22° C | 75% | 1018.9 hPa | 0 mm | - | - | - |
| 1788066003 | 17.22° C | 75% | 1018.8 hPa | 0 mm | - | - | - |
| 1788064203 | 17.22° C | 75% | 1018.9 hPa | 0 mm | - | - | - |
| 1788062403 | 17.22° C | 74% | 1018.7 hPa | 0 mm | - | - | - |
* Rain latest hour (hover to see other rain measurements)
** Current wind speed in m/s (hover to see current wind gust speed)